createdAt,value
2023-04-27T00:01:00.073Z,67.96
2023-04-27T00:03:26.895Z,68.32
2023-04-27T00:05:53.678Z,67.67
2023-04-27T00:08:20.127Z,68.23
2023-04-27T00:10:46.543Z,68.70
2023-04-27T00:13:12.983Z,68.79
2023-04-27T00:15:39.497Z,68.33
2023-04-27T00:18:06.178Z,68.14
2023-04-27T00:20:33.808Z,67.94
2023-04-27T00:23:00.223Z,68.23
2023-04-27T00:25:26.703Z,68.16
2023-04-27T00:27:53.218Z,68.67
2023-04-27T00:30:19.875Z,68.10
2023-04-27T00:32:46.348Z,67.62
2023-04-27T00:35:16.270Z,67.30
2023-04-27T00:37:42.710Z,67.46
2023-04-27T00:40:09.518Z,68.02
2023-04-27T00:42:36.534Z,67.57
2023-04-27T00:45:04.062Z,68.15
2023-04-27T00:47:30.931Z,68.03
2023-04-27T00:49:57.471Z,68.22
2023-04-27T00:52:25.993Z,68.85
2023-04-27T00:54:53.640Z,68.67
2023-04-27T00:57:21.323Z,68.24
2023-04-27T00:59:47.811Z,68.02
2023-04-27T01:02:14.898Z,68.36
2023-04-27T01:04:41.526Z,68.38
2023-04-27T01:07:08.152Z,68.87
2023-04-27T01:09:34.637Z,68.55
2023-04-27T01:12:01.289Z,68.62
2023-04-27T01:14:27.769Z,68.79
2023-04-27T01:16:54.433Z,68.37
2023-04-27T01:19:20.979Z,68.52
2023-04-27T01:21:47.396Z,68.34
2023-04-27T01:24:13.887Z,68.78
2023-04-27T01:26:40.541Z,68.57
2023-04-27T01:29:07.072Z,68.47
2023-04-27T01:31:33.556Z,68.55
2023-04-27T01:34:00.208Z,68.13
2023-04-27T01:36:27.636Z,68.79
2023-04-27T01:38:55.781Z,68.40
2023-04-27T01:41:22.238Z,68.59
2023-04-27T01:43:48.634Z,68.61
2023-04-27T01:46:15.824Z,68.64
2023-04-27T01:48:42.365Z,69.45
2023-04-27T01:51:10.938Z,69.30
2023-04-27T01:53:37.418Z,68.49
2023-04-27T01:56:04.031Z,69.10
2023-04-27T01:58:32.812Z,69.12
2023-04-27T02:00:59.351Z,69.53
2023-04-27T02:03:26.167Z,69.29
2023-04-27T02:05:52.911Z,69.13
2023-04-27T02:08:19.389Z,68.56
2023-04-27T02:10:45.937Z,69.10
2023-04-27T02:13:12.500Z,69.28
2023-04-27T02:15:38.925Z,69.28
2023-04-27T02:18:05.644Z,69.17
2023-04-27T02:20:33.150Z,68.82
2023-04-27T02:23:02.179Z,69.23
2023-04-27T02:25:28.985Z,69.95
2023-04-27T02:27:55.914Z,69.79
2023-04-27T02:30:23.043Z,69.82
2023-04-27T02:32:50.055Z,69.72
2023-04-27T02:35:16.730Z,69.74
2023-04-27T02:37:43.436Z,70.37
2023-04-27T02:40:11.532Z,70.16
2023-04-27T02:42:41.108Z,70.28
2023-04-27T02:45:11.501Z,69.99
2023-04-27T02:47:38.179Z,69.86
2023-04-27T02:50:06.021Z,70.26
2023-04-27T02:52:34.415Z,69.48
2023-04-27T02:55:01.128Z,69.68
2023-04-27T02:57:28.409Z,69.72
2023-04-27T02:59:54.880Z,70.13
2023-04-27T03:02:21.476Z,70.27
2023-04-27T03:04:53.465Z,69.83
2023-04-27T03:07:20.019Z,69.80
2023-04-27T03:09:46.455Z,69.54
2023-04-27T03:12:12.871Z,69.95
2023-04-27T03:14:39.452Z,70.39
2023-04-27T03:17:05.945Z,70.09
2023-04-27T03:19:32.553Z,70.12
2023-04-27T03:21:59.298Z,70.23
2023-04-27T03:24:25.894Z,70.16
2023-04-27T03:26:52.469Z,70.08
2023-04-27T03:29:21.196Z,70.06
2023-04-27T03:31:47.864Z,69.71
2023-04-27T03:34:14.606Z,69.92
2023-04-27T03:36:41.403Z,70.43
2023-04-27T03:39:09.972Z,70.12
2023-04-27T03:41:36.649Z,70.26
2023-04-27T03:44:03.513Z,70.18
2023-04-27T03:46:30.191Z,70.71
2023-04-27T03:48:56.957Z,70.55
2023-04-27T03:51:24.427Z,70.47
2023-04-27T03:53:50.961Z,71.06
2023-04-27T03:56:19.044Z,71.01
2023-04-27T03:58:46.824Z,70.84
2023-04-27T04:01:21.926Z,70.70
2023-04-27T04:03:50.706Z,70.84
2023-04-27T04:06:17.807Z,70.58
2023-04-27T04:08:45.796Z,71.19
2023-04-27T04:11:12.817Z,70.96
2023-04-27T04:13:39.662Z,71.08
2023-04-27T04:16:08.815Z,70.77
2023-04-27T04:18:37.022Z,71.48
2023-04-27T04:21:04.777Z,71.16
2023-04-27T04:23:32.852Z,71.15
2023-04-27T04:25:59.849Z,71.16
2023-04-27T04:28:31.097Z,71.15
2023-04-27T04:30:59.118Z,70.98
2023-04-27T04:33:26.496Z,71.03
2023-04-27T04:35:53.807Z,70.89
2023-04-27T04:38:21.749Z,71.25
2023-04-27T04:40:48.952Z,70.61
2023-04-27T04:43:15.607Z,71.20
2023-04-27T04:45:42.681Z,71.14
2023-04-27T04:48:10.313Z,71.08
2023-04-27T04:50:37.143Z,70.92
2023-04-27T04:53:03.887Z,71.00
2023-04-27T04:55:31.564Z,70.87
2023-04-27T04:57:58.355Z,71.08
2023-04-27T05:00:28.013Z,70.96
2023-04-27T05:02:54.720Z,71.13
2023-04-27T05:05:21.454Z,71.05
2023-04-27T05:07:47.966Z,71.48
2023-04-27T05:10:14.641Z,70.77
2023-04-27T05:12:41.414Z,70.60
2023-04-27T05:15:08.529Z,70.84
2023-04-27T05:17:35.151Z,71.11
2023-04-27T05:20:01.845Z,70.72
2023-04-27T05:22:28.479Z,70.79
2023-04-27T05:24:55.870Z,71.09
2023-04-27T05:27:22.546Z,70.33
2023-04-27T05:29:49.256Z,70.68
2023-04-27T05:32:15.728Z,70.49
2023-04-27T05:34:45.663Z,70.23
2023-04-27T05:37:13.988Z,70.50
2023-04-27T05:39:40.890Z,69.94
2023-04-27T05:42:07.385Z,70.22
2023-04-27T05:44:33.839Z,70.51
2023-04-27T05:47:00.454Z,70.10
2023-04-27T05:49:27.129Z,69.93
2023-04-27T05:51:53.606Z,69.99
2023-04-27T05:54:20.331Z,69.49
2023-04-27T05:56:47.121Z,69.49
2023-04-27T05:59:13.754Z,69.31
2023-04-27T06:01:40.334Z,68.96
2023-04-27T06:04:07.218Z,69.14
2023-04-27T06:06:35.422Z,69.11
2023-04-27T06:09:02.117Z,68.15
2023-04-27T06:11:28.569Z,67.91
2023-04-27T06:13:55.210Z,66.64
2023-04-27T06:16:21.958Z,66.71
2023-04-27T06:18:50.538Z,65.78
2023-04-27T06:21:18.044Z,65.38
2023-04-27T06:23:44.801Z,65.06
2023-04-27T06:26:11.719Z,65.17
2023-04-27T06:28:38.424Z,64.56
2023-04-27T06:31:06.433Z,63.98
2023-04-27T06:33:33.341Z,64.46
2023-04-27T06:36:01.266Z,65.27
2023-04-27T06:38:27.759Z,65.59
2023-04-27T06:40:54.195Z,65.55
2023-04-27T06:43:20.687Z,65.20
2023-04-27T06:45:47.220Z,64.71
2023-04-27T06:48:13.776Z,64.17
2023-04-27T06:50:40.471Z,62.33
2023-04-27T06:53:06.933Z,62.33
2023-04-27T06:55:33.367Z,62.38
2023-04-27T06:57:59.899Z,61.49
2023-04-27T07:00:27.029Z,61.89
2023-04-27T07:02:53.572Z,61.39
2023-04-27T07:05:20.250Z,60.79
2023-04-27T07:07:46.681Z,60.16
2023-04-27T07:10:13.136Z,58.86
2023-04-27T07:12:40.206Z,58.53
2023-04-27T07:15:07.493Z,57.95
2023-04-27T07:17:34.017Z,57.55
2023-04-27T07:20:05.876Z,57.60
2023-04-27T07:22:33.035Z,56.17
2023-04-27T07:24:59.514Z,56.86
2023-04-27T07:27:26.588Z,56.72
2023-04-27T07:29:53.387Z,55.96
2023-04-27T07:32:19.935Z,56.19
2023-04-27T07:34:53.641Z,56.21
2023-04-27T07:37:21.736Z,56.54
2023-04-27T07:39:54.634Z,55.76
2023-04-27T07:42:25.009Z,55.42
2023-04-27T07:44:52.359Z,55.83
2023-04-27T07:47:18.894Z,55.74
2023-04-27T07:49:46.281Z,55.53
2023-04-27T07:52:12.714Z,55.75
2023-04-27T07:54:39.816Z,54.27
2023-04-27T07:57:11.441Z,54.94
2023-04-27T07:59:38.200Z,54.98
2023-04-27T08:02:18.275Z,54.87
2023-04-27T08:04:46.638Z,54.03
2023-04-27T08:07:14.126Z,54.39
2023-04-27T08:09:40.752Z,53.26
2023-04-27T08:12:07.279Z,54.84
2023-04-27T08:14:36.776Z,54.24
2023-04-27T08:17:03.404Z,53.84
2023-04-27T08:19:30.027Z,53.91
2023-04-27T08:21:56.694Z,54.43
2023-04-27T08:24:23.154Z,53.63
2023-04-27T08:26:49.642Z,53.60
2023-04-27T08:29:27.194Z,54.39
2023-04-27T08:31:57.157Z,54.20
2023-04-27T08:34:24.032Z,53.54
2023-04-27T08:36:50.648Z,53.86
2023-04-27T08:39:18.028Z,54.17
2023-04-27T08:41:44.649Z,54.15
2023-04-27T08:44:11.111Z,53.77
2023-04-27T08:46:38.606Z,53.99
2023-04-27T08:49:06.428Z,53.90
2023-04-27T08:51:33.376Z,53.79
2023-04-27T08:54:00.128Z,53.69
2023-04-27T08:56:28.253Z,52.56
2023-04-27T08:58:56.226Z,52.38
2023-04-27T09:01:24.391Z,50.63
2023-04-27T09:04:02.300Z,50.75
2023-04-27T09:06:31.525Z,51.56
2023-04-27T09:08:58.106Z,50.50
2023-04-27T09:11:35.960Z,50.43
2023-04-27T09:14:15.640Z,50.16
2023-04-27T09:16:43.287Z,50.17
2023-04-27T09:19:10.032Z,50.06
2023-04-27T09:21:36.482Z,50.01
2023-04-27T09:24:13.763Z,50.88
2023-04-27T09:26:42.737Z,50.55
2023-04-27T09:29:09.378Z,50.21
2023-04-27T09:31:36.459Z,51.34
2023-04-27T09:34:03.807Z,51.69
2023-04-27T09:36:32.294Z,51.32
2023-04-27T09:38:59.059Z,51.21
2023-04-27T09:41:26.604Z,50.40
2023-04-27T09:43:57.006Z,51.56
2023-04-27T09:46:25.796Z,50.43
2023-04-27T09:48:52.929Z,51.88
2023-04-27T09:51:19.365Z,51.21
2023-04-27T09:53:51.581Z,50.96
2023-04-27T09:56:44.418Z,50.42
2023-04-27T09:59:26.794Z,50.14
2023-04-27T10:02:01.371Z,50.14
2023-04-27T10:04:34.604Z,50.07
2023-04-27T10:07:07.542Z,51.22
2023-04-27T10:09:41.377Z,50.75
2023-04-27T10:12:28.304Z,48.99
2023-04-27T10:15:11.108Z,50.31
2023-04-27T10:17:37.824Z,49.67
2023-04-27T10:20:07.391Z,48.08
2023-04-27T10:22:49.966Z,46.75
2023-04-27T10:25:17.805Z,46.55
2023-04-27T10:27:48.729Z,46.84
2023-04-27T10:30:18.159Z,47.91
2023-04-27T10:32:58.540Z,48.15
2023-04-27T10:35:55.742Z,47.86
2023-04-27T10:38:28.684Z,47.26
2023-04-27T10:41:03.365Z,47.77
2023-04-27T10:43:32.142Z,48.84
2023-04-27T10:46:13.194Z,48.00
2023-04-27T10:48:43.894Z,48.43
2023-04-27T10:51:15.376Z,47.54
2023-04-27T10:53:42.079Z,47.45
2023-04-27T10:56:08.689Z,47.40
2023-04-27T10:58:48.197Z,47.82
2023-04-27T11:01:25.802Z,47.57
2023-04-27T11:03:59.825Z,47.87
2023-04-27T11:06:28.396Z,47.91
2023-04-27T11:08:54.970Z,48.81
2023-04-27T11:11:22.542Z,48.54
2023-04-27T11:13:49.822Z,47.34
2023-04-27T11:16:16.809Z,46.17
2023-04-27T11:18:43.292Z,45.15
2023-04-27T11:21:14.985Z,46.07
2023-04-27T11:23:42.250Z,46.58
2023-04-27T11:26:22.127Z,44.68
2023-04-27T11:29:05.456Z,45.33
2023-04-27T11:31:49.327Z,44.84
2023-04-27T11:34:23.982Z,44.14
2023-04-27T11:39:38.952Z,45.86
2023-04-27T11:42:16.965Z,45.59
2023-04-27T11:44:43.578Z,46.76
2023-04-27T11:47:18.851Z,46.34
2023-04-27T11:49:49.673Z,45.77
2023-04-27T11:52:16.631Z,45.70
2023-04-27T11:54:52.881Z,45.04
2023-04-27T11:57:30.833Z,44.46
2023-04-27T12:00:00.118Z,46.03
2023-04-27T12:02:27.959Z,46.43
2023-04-27T12:04:55.044Z,45.60
2023-04-27T12:07:21.659Z,45.75
2023-04-27T12:09:48.636Z,45.83
2023-04-27T12:12:18.169Z,45.61
2023-04-27T12:14:45.312Z,45.53
2023-04-27T12:17:11.984Z,43.83
2023-04-27T12:19:38.475Z,43.68
2023-04-27T12:22:05.368Z,45.54
2023-04-27T12:24:32.299Z,44.99
2023-04-27T12:26:59.415Z,45.46
2023-04-27T12:29:25.840Z,46.52
2023-04-27T12:31:53.213Z,45.70
2023-04-27T12:34:19.786Z,44.63
2023-04-27T12:36:46.968Z,46.31
2023-04-27T12:39:19.671Z,45.09
2023-04-27T12:41:47.766Z,43.79
2023-04-27T12:44:15.336Z,44.24
2023-04-27T12:46:43.206Z,43.57
2023-04-27T12:49:11.116Z,43.20
2023-04-27T12:51:37.720Z,41.22
2023-04-27T12:54:04.701Z,41.78
2023-04-27T12:56:31.347Z,40.68
2023-04-27T12:58:58.330Z,41.73
2023-04-27T13:01:27.558Z,41.21
2023-04-27T13:03:55.787Z,42.42
2023-04-27T13:06:22.840Z,42.66
2023-04-27T13:08:50.860Z,41.79
2023-04-27T13:11:18.329Z,41.49
2023-04-27T13:13:45.794Z,41.97
2023-04-27T13:16:12.988Z,42.06
2023-04-27T13:18:40.630Z,42.09
2023-04-27T13:21:08.364Z,41.34
2023-04-27T13:23:34.813Z,41.85
2023-04-27T13:26:01.467Z,41.92
2023-04-27T13:28:27.949Z,40.70
2023-04-27T13:30:54.511Z,41.24
2023-04-27T13:33:23.509Z,38.32
2023-04-27T13:35:51.246Z,36.33
2023-04-27T13:38:17.777Z,28.30
2023-04-27T13:40:44.340Z,27.74
2023-04-27T13:43:10.968Z,29.59
2023-04-27T13:45:37.432Z,32.93
2023-04-27T13:48:04.041Z,34.25
2023-04-27T13:50:30.602Z,35.02
2023-04-27T13:52:57.097Z,35.93
2023-04-27T13:55:23.752Z,37.73
2023-04-27T13:57:50.376Z,37.63
2023-04-27T14:00:17.076Z,40.16
2023-04-27T14:02:43.738Z,40.30
2023-04-27T14:05:10.397Z,39.78
2023-04-27T14:07:36.957Z,41.09
2023-04-27T14:10:04.423Z,39.42
2023-04-27T14:12:34.107Z,40.35
2023-04-27T14:15:00.652Z,40.13
2023-04-27T14:17:27.075Z,38.91
2023-04-27T14:19:53.502Z,39.50
2023-04-27T14:22:19.947Z,38.19
2023-04-27T14:24:46.519Z,38.89
2023-04-27T14:27:12.962Z,36.42
2023-04-27T14:29:39.438Z,34.27
2023-04-27T14:32:06.316Z,36.26
2023-04-27T14:34:32.942Z,36.19
2023-04-27T14:36:59.394Z,35.73
2023-04-27T14:39:28.053Z,36.01
2023-04-27T14:41:54.568Z,36.63
2023-04-27T14:44:21.041Z,35.42
2023-04-27T14:46:47.508Z,35.73
2023-04-27T14:49:14.270Z,36.61
2023-04-27T14:51:43.355Z,37.06
2023-04-27T14:54:10.050Z,36.66
2023-04-27T14:56:36.552Z,37.75
2023-04-27T14:59:03.158Z,37.10
2023-04-27T15:01:29.684Z,37.17
2023-04-27T15:03:57.823Z,37.75
2023-04-27T15:06:28.112Z,37.45
2023-04-27T15:08:55.289Z,36.77
2023-04-27T15:11:22.060Z,36.82
2023-04-27T15:13:48.874Z,38.21
2023-04-27T15:16:15.559Z,35.96
2023-04-27T15:18:42.288Z,36.72
2023-04-27T15:21:08.771Z,36.92
2023-04-27T15:23:37.071Z,37.19
2023-04-27T15:26:03.619Z,37.21
2023-04-27T15:28:30.263Z,37.66
2023-04-27T15:30:56.782Z,37.18
2023-04-27T15:33:23.308Z,35.78
2023-04-27T15:35:50.016Z,36.98
2023-04-27T15:38:17.830Z,37.41
2023-04-27T15:40:44.359Z,37.85
2023-04-27T15:43:10.948Z,38.15
2023-04-27T15:45:37.564Z,38.13
2023-04-27T15:48:04.315Z,38.82
2023-04-27T15:50:30.919Z,39.62
2023-04-27T15:52:57.391Z,39.06
2023-04-27T15:55:24.152Z,39.55
2023-04-27T15:57:50.700Z,38.64
2023-04-27T16:00:18.843Z,39.59
2023-04-27T16:02:46.341Z,38.84
2023-04-27T16:05:13.054Z,39.53
2023-04-27T16:07:39.874Z,37.89
2023-04-27T16:10:07.299Z,38.17
2023-04-27T16:12:33.818Z,37.44
2023-04-27T16:15:00.843Z,38.15
2023-04-27T16:17:29.020Z,39.49
2023-04-27T16:19:55.560Z,32.49
2023-04-27T16:22:22.268Z,29.86
2023-04-27T16:24:48.859Z,27.23
2023-04-27T16:27:17.145Z,27.42
2023-04-27T16:29:43.710Z,31.07
2023-04-27T16:32:10.962Z,28.70
2023-04-27T16:34:38.099Z,27.01
2023-04-27T16:37:05.871Z,26.76
2023-04-27T16:39:32.788Z,26.07
2023-04-27T16:41:59.236Z,24.64
2023-04-27T16:44:26.153Z,23.02
2023-04-27T16:46:52.683Z,24.24
2023-04-27T16:49:19.154Z,24.10
2023-04-27T16:51:45.681Z,23.46
2023-04-27T16:54:12.704Z,23.56
2023-04-27T16:56:39.155Z,23.45
2023-04-27T16:59:05.962Z,23.50
2023-04-27T17:01:32.466Z,22.74
2023-04-27T17:04:02.225Z,24.30
2023-04-27T17:06:29.925Z,25.77
2023-04-27T17:08:57.502Z,27.13
2023-04-27T17:11:24.262Z,28.09
2023-04-27T17:13:50.868Z,28.72
2023-04-27T17:16:18.678Z,29.18
2023-04-27T17:18:46.917Z,28.62
2023-04-27T17:21:13.828Z,28.12
2023-04-27T17:23:43.123Z,28.90
2023-04-27T17:26:10.599Z,30.87
2023-04-27T17:28:37.084Z,32.23
2023-04-27T17:31:03.601Z,34.34
2023-04-27T17:33:30.243Z,34.86
2023-04-27T17:35:56.737Z,36.92
2023-04-27T17:38:23.179Z,37.95
2023-04-27T17:40:49.646Z,39.45
2023-04-27T17:43:16.224Z,39.44
2023-04-27T17:45:42.809Z,40.46
2023-04-27T17:48:09.282Z,41.21
2023-04-27T17:50:37.468Z,42.24
2023-04-27T17:53:03.928Z,43.51
2023-04-27T17:55:30.340Z,44.59
2023-04-27T17:57:56.755Z,45.42
2023-04-27T18:00:23.388Z,45.96
2023-04-27T18:02:50.149Z,46.53
2023-04-27T18:05:17.238Z,46.72
2023-04-27T18:07:46.112Z,47.05
2023-04-27T18:10:12.915Z,48.17
2023-04-27T18:12:39.354Z,48.61
2023-04-27T18:15:09.347Z,49.45
2023-04-27T18:17:36.467Z,50.30
2023-04-27T18:20:09.423Z,50.52
2023-04-27T18:22:38.368Z,51.36
2023-04-27T18:25:05.205Z,52.26
2023-04-27T18:27:32.781Z,52.78
2023-04-27T18:29:59.333Z,52.97
2023-04-27T18:32:25.854Z,53.73
2023-04-27T18:34:52.423Z,53.97
2023-04-27T18:37:18.861Z,54.39
2023-04-27T18:39:45.317Z,54.95
2023-04-27T18:42:11.764Z,55.01
2023-04-27T18:44:38.227Z,54.86
2023-04-27T18:47:04.749Z,55.80
2023-04-27T18:49:31.186Z,55.95
2023-04-27T18:51:57.641Z,56.18
2023-04-27T18:54:24.071Z,56.40
2023-04-27T18:56:52.970Z,57.05
2023-04-27T18:59:20.234Z,57.11
2023-04-27T19:01:46.870Z,57.12
2023-04-27T19:04:14.473Z,57.04
2023-04-27T19:06:41.118Z,57.71
2023-04-27T19:09:09.113Z,58.10
2023-04-27T19:11:35.986Z,58.35
2023-04-27T19:14:02.438Z,58.66
2023-04-27T19:16:29.005Z,59.18
2023-04-27T19:18:55.544Z,58.71
2023-04-27T19:21:21.977Z,59.21
2023-04-27T19:23:48.468Z,58.98
2023-04-27T19:26:15.056Z,59.29
2023-04-27T19:28:41.539Z,59.65
2023-04-27T19:31:08.351Z,59.63
2023-04-27T19:33:34.949Z,60.10
2023-04-27T19:36:01.486Z,60.61
2023-04-27T19:38:27.912Z,61.16
2023-04-27T19:40:54.339Z,61.31
2023-04-27T19:43:20.884Z,61.32
2023-04-27T19:45:49.303Z,61.45
2023-04-27T19:48:16.087Z,61.40
2023-04-27T19:50:43.635Z,61.65
2023-04-27T19:53:10.839Z,61.58
2023-04-27T19:55:37.781Z,61.89
2023-04-27T19:58:04.221Z,61.92
2023-04-27T20:00:30.689Z,62.03
2023-04-27T20:02:57.200Z,61.86
2023-04-27T20:05:24.407Z,62.06
2023-04-27T20:07:51.047Z,62.21
2023-04-27T20:10:17.616Z,61.75
2023-04-27T20:12:54.331Z,62.33
2023-04-27T20:15:22.372Z,62.35
2023-04-27T20:17:48.802Z,62.58
2023-04-27T20:20:15.323Z,62.88
2023-04-27T20:22:41.821Z,62.79
2023-04-27T20:25:08.651Z,63.31
2023-04-27T20:27:35.629Z,63.74
2023-04-27T20:30:02.358Z,63.44
2023-04-27T20:32:28.821Z,63.34
2023-04-27T20:34:55.280Z,63.24
2023-04-27T20:37:23.066Z,63.39
2023-04-27T20:39:49.517Z,63.66
2023-04-27T20:42:16.077Z,64.08
2023-04-27T20:44:42.560Z,64.40
2023-04-27T20:47:09.002Z,64.43
2023-04-27T20:49:35.875Z,64.45
2023-04-27T20:52:03.034Z,63.58
2023-04-27T20:54:32.789Z,64.30
2023-04-27T20:57:01.765Z,63.61
2023-04-27T20:59:28.147Z,63.81
2023-04-27T21:01:54.561Z,63.79
2023-04-27T21:04:21.261Z,63.98
2023-04-27T21:06:47.913Z,64.52
2023-04-27T21:09:14.333Z,64.94
2023-04-27T21:11:40.930Z,65.16
2023-04-27T21:14:07.397Z,65.31
2023-04-27T21:16:33.894Z,65.34
2023-04-27T21:19:00.379Z,65.57
2023-04-27T21:21:26.983Z,65.42
2023-04-27T21:24:04.092Z,65.33
2023-04-27T21:26:34.221Z,65.62
2023-04-27T21:29:01.327Z,65.72
2023-04-27T21:31:27.782Z,65.74
2023-04-27T21:33:54.210Z,65.68
2023-04-27T21:36:20.608Z,65.29
2023-04-27T21:38:47.218Z,65.77
2023-04-27T21:41:13.659Z,65.94
2023-04-27T21:43:42.017Z,66.30
2023-04-27T21:46:09.176Z,66.44
2023-04-27T21:48:36.161Z,66.67
2023-04-27T21:51:02.876Z,66.24
2023-04-27T21:53:30.355Z,66.87
2023-04-27T21:55:57.130Z,66.54
2023-04-27T21:58:24.221Z,66.69
2023-04-27T22:00:50.836Z,66.93
2023-04-27T22:03:17.746Z,66.94
2023-04-27T22:05:45.262Z,66.97
2023-04-27T22:08:12.126Z,67.34
2023-04-27T22:10:38.687Z,67.42
2023-04-27T22:13:17.781Z,67.75
2023-04-27T22:15:45.819Z,68.12
2023-04-27T22:18:14.221Z,67.83
2023-04-27T22:20:40.736Z,67.83
2023-04-27T22:23:07.627Z,67.84
2023-04-27T22:25:34.073Z,67.59
2023-04-27T22:28:01.502Z,67.93
2023-04-27T22:30:28.818Z,68.27
2023-04-27T22:32:56.273Z,67.47
2023-04-27T22:35:27.248Z,67.79
2023-04-27T22:37:59.022Z,68.13
2023-04-27T22:40:25.885Z,67.94
2023-04-27T22:42:53.381Z,68.10
2023-04-27T22:45:19.868Z,67.98
2023-04-27T22:47:46.476Z,68.67
2023-04-27T22:50:13.406Z,68.67
2023-04-27T22:52:42.156Z,68.79
2023-04-27T22:55:09.923Z,68.80
2023-04-27T22:57:36.695Z,68.67
2023-04-27T23:00:05.356Z,68.90
2023-04-27T23:02:32.345Z,68.39
2023-04-27T23:04:59.096Z,68.68
2023-04-27T23:07:25.562Z,68.74
2023-04-27T23:09:52.736Z,69.03
2023-04-27T23:12:20.651Z,68.99
2023-04-27T23:14:47.174Z,68.77
2023-04-27T23:17:15.431Z,69.03
2023-04-27T23:19:41.988Z,68.98
2023-04-27T23:22:08.455Z,68.78
2023-04-27T23:24:34.891Z,69.13
2023-04-27T23:27:01.383Z,69.08
2023-04-27T23:29:27.867Z,69.30
2023-04-27T23:31:54.367Z,68.89
2023-04-27T23:34:20.767Z,69.11
2023-04-27T23:36:47.317Z,69.27
2023-04-27T23:39:13.754Z,69.12
2023-04-27T23:41:40.164Z,69.58
2023-04-27T23:44:06.844Z,69.45
2023-04-27T23:46:33.999Z,69.75
2023-04-27T23:49:00.507Z,69.59
2023-04-27T23:51:27.136Z,70.26
2023-04-27T23:53:53.547Z,69.87
2023-04-27T23:56:20.117Z,69.87
2023-04-27T23:58:46.571Z,70.28
